sensor_id;sensor_type;location;lat;lon;timestamp;pressure;altitude;pressure_sealevel;temperature;humidity
75013;BME280;63567;49.956;20.130;2023-03-09T00:00:45;94978.22;;;5.90;81.99
75013;BME280;63567;49.956;20.130;2023-03-09T00:03:10;94967.38;;;5.87;81.92
75013;BME280;63567;49.956;20.130;2023-03-09T00:05:42;94955.94;;;5.81;82.90
75013;BME280;63567;49.956;20.130;2023-03-09T00:08:08;94964.19;;;5.78;83.52
75013;BME280;63567;49.956;20.130;2023-03-09T00:10:34;94956.97;;;5.80;83.59
75013;BME280;63567;49.956;20.130;2023-03-09T00:12:59;94953.91;;;5.83;83.45
75013;BME280;63567;49.956;20.130;2023-03-09T00:15:24;94954.75;;;5.84;83.60
75013;BME280;63567;49.956;20.130;2023-03-09T00:17:50;94959.13;;;5.83;83.92
75013;BME280;63567;49.956;20.130;2023-03-09T00:20:15;94949.75;;;5.75;84.65
75013;BME280;63567;49.956;20.130;2023-03-09T00:22:49;94947.09;;;5.82;84.53
75013;BME280;63567;49.956;20.130;2023-03-09T00:25:15;94946.50;;;5.80;84.80
75013;BME280;63567;49.956;20.130;2023-03-09T00:27:41;94942.47;;;5.84;84.67
75013;BME280;63567;49.956;20.130;2023-03-09T00:30:09;94939.66;;;5.86;84.74
75013;BME280;63567;49.956;20.130;2023-03-09T00:32:34;94950.09;;;5.86;84.78
75013;BME280;63567;49.956;20.130;2023-03-09T00:34:59;94943.06;;;5.86;84.74
75013;BME280;63567;49.956;20.130;2023-03-09T00:37:25;94943.06;;;5.86;84.87
75013;BME280;63567;49.956;20.130;2023-03-09T00:39:50;94935.84;;;5.82;85.26
75013;BME280;63567;49.956;20.130;2023-03-09T00:42:15;94938.63;;;5.87;85.10
75013;BME280;63567;49.956;20.130;2023-03-09T00:44:41;94933.66;;;5.79;85.77
75013;BME280;63567;49.956;20.130;2023-03-09T00:47:06;94934.88;;;5.76;85.97
75013;BME280;63567;49.956;20.130;2023-03-09T00:49:31;94933.88;;;5.77;85.93
75013;BME280;63567;49.956;20.130;2023-03-09T00:51:56;94930.88;;;5.73;85.58
75013;BME280;63567;49.956;20.130;2023-03-09T00:54:22;94931.03;;;5.79;85.68
75013;BME280;63567;49.956;20.130;2023-03-09T00:56:47;94929.50;;;5.71;86.59
75013;BME280;63567;49.956;20.130;2023-03-09T00:59:12;94937.09;;;5.72;86.11
75013;BME280;63567;49.956;20.130;2023-03-09T01:01:38;94930.69;;;5.75;86.53
75013;BME280;63567;49.956;20.130;2023-03-09T01:04:04;94925.50;;;5.68;86.68
75013;BME280;63567;49.956;20.130;2023-03-09T01:06:29;94930.69;;;5.75;86.73
75013;BME280;63567;49.956;20.130;2023-03-09T01:08:54;94934.88;;;5.76;86.68
75013;BME280;63567;49.956;20.130;2023-03-09T01:11:20;94925.03;;;5.78;86.79
75013;BME280;63567;49.956;20.130;2023-03-09T01:13:45;94927.00;;;5.83;86.08
75013;BME280;63567;49.956;20.130;2023-03-09T01:16:11;94920.38;;;5.80;86.19
75013;BME280;63567;49.956;20.130;2023-03-09T01:18:37;94911.53;;;5.81;85.94
75013;BME280;63567;49.956;20.130;2023-03-09T01:21:03;94913.28;;;5.87;85.58
75013;BME280;63567;49.956;20.130;2023-03-09T01:23:28;94912.09;;;5.90;85.75
75013;BME280;63567;49.956;20.130;2023-03-09T01:25:54;94901.84;;;5.88;85.54
75013;BME280;63567;49.956;20.130;2023-03-09T01:28:20;94903.22;;;5.91;85.62
75013;BME280;63567;49.956;20.130;2023-03-09T01:30:46;94905.25;;;5.89;85.83
75013;BME280;63567;49.956;20.130;2023-03-09T01:33:11;94905.47;;;5.87;85.77
75013;BME280;63567;49.956;20.130;2023-03-09T01:35:38;94900.19;;;5.94;85.26
75013;BME280;63567;49.956;20.130;2023-03-09T01:38:03;94893.81;;;5.90;85.53
75013;BME280;63567;49.956;20.130;2023-03-09T01:40:29;94889.97;;;5.92;85.73
75013;BME280;63567;49.956;20.130;2023-03-09T01:43:19;94898.59;;;5.93;85.37
75013;BME280;63567;49.956;20.130;2023-03-09T01:48:11;94895.41;;;5.91;85.89
75013;BME280;63567;49.956;20.130;2023-03-09T01:50:37;94888.94;;;5.93;85.14
75013;BME280;63567;49.956;20.130;2023-03-09T01:53:07;94891.16;;;5.96;85.14
75013;BME280;63567;49.956;20.130;2023-03-09T01:55:39;94901.06;;;5.88;85.87
75013;BME280;63567;49.956;20.130;2023-03-09T01:58:18;94890.16;;;5.91;85.79
75013;BME280;63567;49.956;20.130;2023-03-09T02:00:47;94894.97;;;5.94;85.53
75013;BME280;63567;49.956;20.130;2023-03-09T02:03:40;94896.19;;;5.91;85.88
75013;BME280;63567;49.956;20.130;2023-03-09T02:06:18;94891.41;;;5.88;86.06
75013;BME280;63567;49.956;20.130;2023-03-09T02:08:53;94892.19;;;5.89;85.96
75013;BME280;63567;49.956;20.130;2023-03-09T02:11:21;94890.16;;;5.97;85.67
75013;BME280;63567;49.956;20.130;2023-03-09T02:13:48;94875.84;;;6.00;85.55
75013;BME280;63567;49.956;20.130;2023-03-09T02:16:15;94873.47;;;5.99;85.38
75013;BME280;63567;49.956;20.130;2023-03-09T02:18:40;94873.47;;;5.99;85.47
75013;BME280;63567;49.956;20.130;2023-03-09T02:21:11;94877.09;;;5.91;85.62
75013;BME280;63567;49.956;20.130;2023-03-09T02:24:04;94880.94;;;5.95;85.39
75013;BME280;63567;49.956;20.130;2023-03-09T02:26:37;94874.69;;;5.89;85.88
75013;BME280;63567;49.956;20.130;2023-03-09T02:29:04;94877.31;;;5.89;85.94
75013;BME280;63567;49.956;20.130;2023-03-09T02:31:29;94861.84;;;5.94;85.40
75013;BME280;63567;49.956;20.130;2023-03-09T02:33:54;94853.78;;;5.89;85.57
75013;BME280;63567;49.956;20.130;2023-03-09T02:36:20;94847.91;;;6.01;85.19
75013;BME280;63567;49.956;20.130;2023-03-09T02:38:46;94845.50;;;5.99;85.10
75013;BME280;63567;49.956;20.130;2023-03-09T02:41:12;94854.28;;;6.05;85.12
75013;BME280;63567;49.956;20.130;2023-03-09T02:43:43;94848.47;;;6.03;85.05
75013;BME280;63567;49.956;20.130;2023-03-09T02:46:11;94848.47;;;6.03;84.71
75013;BME280;63567;49.956;20.130;2023-03-09T02:48:36;94845.59;;;6.11;84.52
75013;BME280;63567;49.956;20.130;2023-03-09T02:51:02;94838.22;;;6.08;84.41
75013;BME280;63567;49.956;20.130;2023-03-09T02:53:27;94847.56;;;6.15;84.40
75013;BME280;63567;49.956;20.130;2023-03-09T02:55:52;94846.13;;;6.20;84.31
75013;BME280;63567;49.956;20.130;2023-03-09T02:58:18;94849.78;;;6.19;84.54
75013;BME280;63567;49.956;20.130;2023-03-09T03:00:43;94841.94;;;6.19;84.60
75013;BME280;63567;49.956;20.130;2023-03-09T03:03:08;94841.34;;;6.16;84.50
75013;BME280;63567;49.956;20.130;2023-03-09T03:05:34;94857.97;;;6.22;84.90
75013;BME280;63567;49.956;20.130;2023-03-09T03:08:00;94853.13;;;6.26;84.41
75013;BME280;63567;49.956;20.130;2023-03-09T03:10:25;94854.94;;;6.25;85.01
75013;BME280;63567;49.956;20.130;2023-03-09T03:12:50;94864.03;;;6.23;84.94
75013;BME280;63567;49.956;20.130;2023-03-09T03:15:16;94856.53;;;6.26;85.27
75013;BME280;63567;49.956;20.130;2023-03-09T03:17:41;94858.34;;;6.26;85.46
75013;BME280;63567;49.956;20.130;2023-03-09T03:20:08;94862.34;;;6.28;85.71
75013;BME280;63567;49.956;20.130;2023-03-09T03:22:42;94864.09;;;6.34;85.82
75013;BME280;63567;49.956;20.130;2023-03-09T03:25:08;94858.28;;;6.32;85.70
75013;BME280;63567;49.956;20.130;2023-03-09T03:27:33;94859.19;;;6.45;86.07
75013;BME280;63567;49.956;20.130;2023-03-09T03:29:59;94861.34;;;6.48;86.19
75013;BME280;63567;49.956;20.130;2023-03-09T03:32:25;94855.34;;;6.47;86.19
75013;BME280;63567;49.956;20.130;2023-03-09T03:34:51;94856.28;;;6.53;86.26
75013;BME280;63567;49.956;20.130;2023-03-09T03:37:16;94851.41;;;6.56;86.12
75013;BME280;63567;49.956;20.130;2023-03-09T03:39:42;94848.97;;;6.62;86.49
75013;BME280;63567;49.956;20.130;2023-03-09T03:42:07;94852.16;;;6.64;86.56
75013;BME280;63567;49.956;20.130;2023-03-09T03:44:32;94843.88;;;6.67;86.23
75013;BME280;63567;49.956;20.130;2023-03-09T03:46:58;94850.69;;;6.68;86.74
75013;BME280;63567;49.956;20.130;2023-03-09T03:49:23;94844.44;;;6.69;86.82
75013;BME280;63567;49.956;20.130;2023-03-09T03:51:48;94838.34;;;6.75;85.86
75013;BME280;63567;49.956;20.130;2023-03-09T03:54:13;94838.94;;;6.77;85.71
75013;BME280;63567;49.956;20.130;2023-03-09T03:56:39;94838.47;;;6.80;85.85
75013;BME280;63567;49.956;20.130;2023-03-09T03:59:04;94840.44;;;6.85;85.38
75013;BME280;63567;49.956;20.130;2023-03-09T04:01:29;94835.78;;;6.87;85.88
75013;BME280;63567;49.956;20.130;2023-03-09T04:03:55;94835.19;;;6.85;85.45
75013;BME280;63567;49.956;20.130;2023-03-09T04:06:20;94839.44;;;6.86;85.82
75013;BME280;63567;49.956;20.130;2023-03-09T04:08:45;94834.63;;;6.83;85.94
75013;BME280;63567;49.956;20.130;2023-03-09T04:11:11;94822.56;;;6.82;85.92
75013;BME280;63567;49.956;20.130;2023-03-09T04:13:37;94837.81;;;6.85;85.96
75013;BME280;63567;49.956;20.130;2023-03-09T04:16:02;94833.81;;;6.82;86.15
75013;BME280;63567;49.956;20.130;2023-03-09T04:18:28;94832.00;;;6.83;86.12
75013;BME280;63567;49.956;20.130;2023-03-09T04:20:53;94834.41;;;6.84;86.06
75013;BME280;63567;49.956;20.130;2023-03-09T04:23:18;94841.47;;;6.84;86.50
75013;BME280;63567;49.956;20.130;2023-03-09T04:25:53;94838.69;;;6.78;86.92
75013;BME280;63567;49.956;20.130;2023-03-09T04:28:18;94837.56;;;6.74;86.75
75013;BME280;63567;49.956;20.130;2023-03-09T04:30:43;94834.94;;;6.74;87.09
75013;BME280;63567;49.956;20.130;2023-03-09T04:33:08;94835.94;;;6.73;86.97
75013;BME280;63567;49.956;20.130;2023-03-09T04:35:34;94832.75;;;6.71;87.18
75013;BME280;63567;49.956;20.130;2023-03-09T04:37:59;94835.34;;;6.71;86.94
75013;BME280;63567;49.956;20.130;2023-03-09T04:40:25;94829.03;;;6.61;87.63
75013;BME280;63567;49.956;20.130;2023-03-09T04:42:50;94828.53;;;6.52;88.32
75013;BME280;63567;49.956;20.130;2023-03-09T04:45:15;94820.53;;;6.47;88.36
75013;BME280;63567;49.956;20.130;2023-03-09T04:47:40;94826.19;;;6.44;88.46
75013;BME280;63567;49.956;20.130;2023-03-09T04:50:06;94828.38;;;6.47;88.36
75013;BME280;63567;49.956;20.130;2023-03-09T04:52:32;94822.13;;;6.48;88.02
75013;BME280;63567;49.956;20.130;2023-03-09T04:54:57;94815.31;;;6.47;88.32
75013;BME280;63567;49.956;20.130;2023-03-09T04:57:22;94814.28;;;6.48;88.06
75013;BME280;63567;49.956;20.130;2023-03-09T04:59:48;94810.44;;;6.50;87.66
75013;BME280;63567;49.956;20.130;2023-03-09T05:02:13;94810.44;;;6.50;87.62
75013;BME280;63567;49.956;20.130;2023-03-09T05:04:38;94807.81;;;6.50;87.60
75013;BME280;63567;49.956;20.130;2023-03-09T05:07:04;94808.41;;;6.52;87.50
75013;BME280;63567;49.956;20.130;2023-03-09T05:09:29;94796.84;;;6.42;88.15
75013;BME280;63567;49.956;20.130;2023-03-09T05:11:54;94801.00;;;6.49;87.82
75013;BME280;63567;49.956;20.130;2023-03-09T05:14:19;94797.28;;;6.38;87.89
75013;BME280;63567;49.956;20.130;2023-03-09T05:16:45;94797.22;;;6.45;88.01
75013;BME280;63567;49.956;20.130;2023-03-09T05:19:13;94798.72;;;6.34;88.38
75013;BME280;63567;49.956;20.130;2023-03-09T05:21:38;94791.69;;;6.35;88.31
75013;BME280;63567;49.956;20.130;2023-03-09T05:24:04;94793.72;;;6.33;88.49
75013;BME280;63567;49.956;20.130;2023-03-09T05:26:29;94789.31;;;6.33;88.35
75013;BME280;63567;49.956;20.130;2023-03-09T05:28:55;94787.28;;;6.35;87.96
75013;BME280;63567;49.956;20.130;2023-03-09T05:31:20;94773.72;;;6.20;88.07
75013;BME280;63567;49.956;20.130;2023-03-09T05:33:46;94791.69;;;6.35;87.89
75013;BME280;63567;49.956;20.130;2023-03-09T05:36:15;94787.03;;;6.37;87.75
75013;BME280;63567;49.956;20.130;2023-03-09T05:38:41;94793.06;;;6.37;87.53
75013;BME280;63567;49.956;20.130;2023-03-09T05:41:06;94792.19;;;6.44;87.53
75013;BME280;63567;49.956;20.130;2023-03-09T05:43:31;94793.81;;;6.45;87.40
75013;BME280;63567;49.956;20.130;2023-03-09T05:45:57;94796.63;;;6.43;87.40
75013;BME280;63567;49.956;20.130;2023-03-09T05:48:22;94797.88;;;6.41;87.14
75013;BME280;63567;49.956;20.130;2023-03-09T05:50:48;94805.66;;;6.47;87.29
75013;BME280;63567;49.956;20.130;2023-03-09T05:53:13;94796.75;;;6.48;86.87
75013;BME280;63567;49.956;20.130;2023-03-09T05:55:38;94795.63;;;6.44;86.99
75013;BME280;63567;49.956;20.130;2023-03-09T05:58:04;94793.34;;;6.48;86.74
75013;BME280;63567;49.956;20.130;2023-03-09T06:00:29;94801.56;;;6.51;86.42
75013;BME280;63567;49.956;20.130;2023-03-09T06:02:54;94796.56;;;6.50;86.37
75013;BME280;63567;49.956;20.130;2023-03-09T06:05:19;94792.88;;;6.57;86.15
75013;BME280;63567;49.956;20.130;2023-03-09T06:07:45;94794.09;;;6.55;86.19
75013;BME280;63567;49.956;20.130;2023-03-09T06:10:11;94792.41;;;6.61;85.80
75013;BME280;63567;49.956;20.130;2023-03-09T06:12:37;94788.78;;;6.62;85.25
75013;BME280;63567;49.956;20.130;2023-03-09T06:15:02;94792.34;;;6.67;85.18
75013;BME280;63567;49.956;20.130;2023-03-09T06:17:28;94797.16;;;6.70;84.99
75013;BME280;63567;49.956;20.130;2023-03-09T06:19:53;94797.34;;;6.69;85.16
75013;BME280;63567;49.956;20.130;2023-03-09T06:22:18;94794.16;;;6.67;85.36
75013;BME280;63567;49.956;20.130;2023-03-09T06:24:44;94801.34;;;6.71;85.37
75013;BME280;63567;49.956;20.130;2023-03-09T06:27:09;94797.34;;;6.69;85.61
75013;BME280;63567;49.956;20.130;2023-03-09T06:29:34;94795.16;;;6.66;85.75
75013;BME280;63567;49.956;20.130;2023-03-09T06:32:00;94794.75;;;6.69;85.47
75013;BME280;63567;49.956;20.130;2023-03-09T06:34:28;94798.16;;;6.69;85.00
75013;BME280;63567;49.956;20.130;2023-03-09T06:36:54;94791.25;;;6.75;84.78
75013;BME280;63567;49.956;20.130;2023-03-09T06:39:19;94801.25;;;6.78;84.76
75013;BME280;63567;49.956;20.130;2023-03-09T06:41:44;94797.28;;;6.75;84.68
75013;BME280;63567;49.956;20.130;2023-03-09T06:44:10;94792.84;;;6.76;84.72
75013;BME280;63567;49.956;20.130;2023-03-09T06:46:36;94792.31;;;6.86;84.41
75013;BME280;63567;49.956;20.130;2023-03-09T06:49:01;94788.75;;;6.80;83.92
75013;BME280;63567;49.956;20.130;2023-03-09T06:51:26;94798.47;;;6.91;84.07
75013;BME280;63567;49.956;20.130;2023-03-09T06:53:52;94796.69;;;6.92;83.96
75013;BME280;63567;49.956;20.130;2023-03-09T06:56:17;94796.53;;;6.87;84.13
75013;BME280;63567;49.956;20.130;2023-03-09T06:58:42;94797.81;;;6.96;83.32
75013;BME280;63567;49.956;20.130;2023-03-09T07:01:09;94801.47;;;6.95;83.34
75013;BME280;63567;49.956;20.130;2023-03-09T07:03:36;94791.94;;;7.01;82.76
75013;BME280;63567;49.956;20.130;2023-03-09T07:06:01;94798.75;;;7.02;83.19
75013;BME280;63567;49.956;20.130;2023-03-09T07:08:27;94797.09;;;7.07;82.71
75013;BME280;63567;49.956;20.130;2023-03-09T07:10:52;94793.56;;;7.13;82.20
75013;BME280;63567;49.956;20.130;2023-03-09T07:13:18;94788.69;;;7.17;82.11
75013;BME280;63567;49.956;20.130;2023-03-09T07:15:44;94790.22;;;7.25;82.27
75013;BME280;63567;49.956;20.130;2023-03-09T07:18:09;94797.97;;;7.31;82.10
75013;BME280;63567;49.956;20.130;2023-03-09T07:20:37;94795.25;;;7.38;81.85
75013;BME280;63567;49.956;20.130;2023-03-09T07:23:02;94800.41;;;7.45;81.10
75013;BME280;63567;49.956;20.130;2023-03-09T07:25:27;94796.06;;;7.50;80.87
75013;BME280;63567;49.956;20.130;2023-03-09T07:27:52;94792.22;;;7.53;81.33
75013;BME280;63567;49.956;20.130;2023-03-09T07:30:18;94791.53;;;7.57;81.27
75013;BME280;63567;49.956;20.130;2023-03-09T07:32:43;94786.31;;;7.69;80.84
75013;BME280;63567;49.956;20.130;2023-03-09T07:35:08;94782.00;;;7.75;80.15
75013;BME280;63567;49.956;20.130;2023-03-09T07:37:34;94791.44;;;7.76;79.65
75013;BME280;63567;49.956;20.130;2023-03-09T07:39:59;94789.75;;;7.81;79.40
75013;BME280;63567;49.956;20.130;2023-03-09T07:42:24;94781.53;;;7.78;79.45
75013;BME280;63567;49.956;20.130;2023-03-09T07:44:50;94781.78;;;7.76;79.54
75013;BME280;63567;49.956;20.130;2023-03-09T07:47:15;94783.38;;;7.77;79.02
75013;BME280;63567;49.956;20.130;2023-03-09T07:49:42;94778.91;;;7.78;79.53
75013;BME280;63567;49.956;20.130;2023-03-09T07:52:08;94776.06;;;7.79;79.01
75013;BME280;63567;49.956;20.130;2023-03-09T07:54:33;94774.38;;;7.85;79.26
75013;BME280;63567;49.956;20.130;2023-03-09T07:56:58;94767.63;;;7.89;78.86
75013;BME280;63567;49.956;20.130;2023-03-09T07:59:24;94759.44;;;7.97;78.71
75013;BME280;63567;49.956;20.130;2023-03-09T08:01:50;94751.69;;;8.14;78.01
75013;BME280;63567;49.956;20.130;2023-03-09T08:04:16;94745.41;;;8.27;77.84
75013;BME280;63567;49.956;20.130;2023-03-09T08:06:41;94742.09;;;8.32;77.51
75013;BME280;63567;49.956;20.130;2023-03-09T08:09:11;94738.66;;;8.31;77.62
75013;BME280;63567;49.956;20.130;2023-03-09T08:11:37;94741.72;;;8.28;77.88
75013;BME280;63567;49.956;20.130;2023-03-09T08:14:02;94744.38;;;8.16;79.29
75013;BME280;63567;49.956;20.130;2023-03-09T08:16:28;94759.19;;;8.11;79.56
75013;BME280;63567;49.956;20.130;2023-03-09T08:18:54;94757.84;;;8.08;81.18
75013;BME280;63567;49.956;20.130;2023-03-09T08:21:20;94748.97;;;8.09;81.09
75013;BME280;63567;49.956;20.130;2023-03-09T08:23:45;94760.47;;;8.20;81.12
75013;BME280;63567;49.956;20.130;2023-03-09T08:26:12;94766.16;;;8.17;81.78
75013;BME280;63567;49.956;20.130;2023-03-09T08:28:39;94770.97;;;8.20;81.49
75013;BME280;63567;49.956;20.130;2023-03-09T08:31:05;94768.22;;;8.15;82.17
75013;BME280;63567;49.956;20.130;2023-03-09T08:33:31;94775.88;;;8.05;83.22
75013;BME280;63567;49.956;20.130;2023-03-09T08:35:57;94778.56;;;7.98;83.31
75013;BME280;63567;49.956;20.130;2023-03-09T08:38:22;94783.50;;;7.94;83.63
75013;BME280;63567;49.956;20.130;2023-03-09T08:40:47;94784.50;;;7.93;84.19
75013;BME280;63567;49.956;20.130;2023-03-09T08:43:13;94784.19;;;7.90;84.64
75013;BME280;63567;49.956;20.130;2023-03-09T08:45:38;94790.69;;;7.87;85.03
75013;BME280;63567;49.956;20.130;2023-03-09T08:48:04;94799.19;;;7.82;85.49
75013;BME280;63567;49.956;20.130;2023-03-09T08:50:29;94792.38;;;7.81;85.79
75013;BME280;63567;49.956;20.130;2023-03-09T08:52:55;94790.69;;;7.87;85.80
75013;BME280;63567;49.956;20.130;2023-03-09T08:55:21;94798.53;;;7.87;86.45
75013;BME280;63567;49.956;20.130;2023-03-09T08:57:46;94790.69;;;7.87;86.80
75013;BME280;63567;49.956;20.130;2023-03-09T09:00:12;94791.78;;;7.91;86.20
75013;BME280;63567;49.956;20.130;2023-03-09T09:02:37;94796.38;;;7.96;85.73
75013;BME280;63567;49.956;20.130;2023-03-09T09:05:04;94799.47;;;8.05;85.70
75013;BME280;63567;49.956;20.130;2023-03-09T09:07:30;94791.13;;;8.08;85.95
75013;BME280;63567;49.956;20.130;2023-03-09T09:09:55;94790.66;;;8.11;86.09
75013;BME280;63567;49.956;20.130;2023-03-09T09:12:21;94782.13;;;8.03;86.28
75013;BME280;63567;49.956;20.130;2023-03-09T09:14:46;94791.72;;;8.10;86.91
75013;BME280;63567;49.956;20.130;2023-03-09T09:17:12;94781.66;;;8.18;86.23
75013;BME280;63567;49.956;20.130;2023-03-09T09:19:38;94792.03;;;8.25;86.66
75013;BME280;63567;49.956;20.130;2023-03-09T09:22:04;94778.81;;;8.32;86.35
75013;BME280;63567;49.956;20.130;2023-03-09T09:24:31;94791.22;;;8.36;86.14
75013;BME280;63567;49.956;20.130;2023-03-09T09:26:57;94801.41;;;8.33;86.85
75013;BME280;63567;49.956;20.130;2023-03-09T09:29:23;94798.31;;;8.36;86.21
75013;BME280;63567;49.956;20.130;2023-03-09T09:31:48;94794.88;;;8.35;85.97
75013;BME280;63567;49.956;20.130;2023-03-09T09:34:14;94795.91;;;8.22;86.35
75013;BME280;63567;49.956;20.130;2023-03-09T09:36:42;94789.63;;;8.23;86.26
75013;BME280;63567;49.956;20.130;2023-03-09T09:39:08;94794.31;;;8.21;86.46
75013;BME280;63567;49.956;20.130;2023-03-09T09:41:41;94789.31;;;8.20;86.50
75013;BME280;63567;49.956;20.130;2023-03-09T09:44:12;94793.53;;;8.09;87.00
75013;BME280;63567;49.956;20.130;2023-03-09T09:46:40;94783.06;;;8.09;87.24
75013;BME280;63567;49.956;20.130;2023-03-09T09:49:08;94791.25;;;8.13;87.49
75013;BME280;63567;49.956;20.130;2023-03-09T09:57:00;94786.25;;;8.11;86.98
75013;BME280;63567;49.956;20.130;2023-03-09T09:59:41;94783.63;;;8.11;86.85
75013;BME280;63567;49.956;20.130;2023-03-09T10:04:37;94791.72;;;8.10;87.48
75013;BME280;63567;49.956;20.130;2023-03-09T10:07:19;94792.28;;;8.12;87.28
75013;BME280;63567;49.956;20.130;2023-03-09T10:09:50;94797.63;;;8.17;86.79
75013;BME280;63567;49.956;20.130;2023-03-09T10:12:17;94797.84;;;8.15;86.78
75013;BME280;63567;49.956;20.130;2023-03-09T10:14:50;94798.31;;;8.24;86.56
75013;BME280;63567;49.956;20.130;2023-03-09T10:19:57;94807.66;;;8.43;86.43
75013;BME280;63567;49.956;20.130;2023-03-09T10:22:25;94813.38;;;8.40;86.13
75013;BME280;63567;49.956;20.130;2023-03-09T10:24:54;94811.91;;;8.33;86.20
75013;BME280;63567;49.956;20.130;2023-03-09T10:30:03;94816.56;;;8.42;85.49
75013;BME280;63567;49.956;20.130;2023-03-09T10:33:23;94817.81;;;8.40;85.54
75013;BME280;63567;49.956;20.130;2023-03-09T10:35:34;94819.50;;;8.34;86.45
75013;BME280;63567;49.956;20.130;2023-03-09T10:38:01;94807.78;;;8.49;86.27
75013;BME280;63567;49.956;20.130;2023-03-09T10:40:29;94813.59;;;8.51;85.89
75013;BME280;63567;49.956;20.130;2023-03-09T10:42:59;94815.66;;;8.49;86.91
75013;BME280;63567;49.956;20.130;2023-03-09T10:45:27;94816.00;;;8.52;86.07
75013;BME280;63567;49.956;20.130;2023-03-09T10:48:05;94818.72;;;8.57;86.14
75013;BME280;63567;49.956;20.130;2023-03-09T10:50:58;94820.78;;;8.55;85.84
75013;BME280;63567;49.956;20.130;2023-03-09T10:53:31;94827.63;;;8.68;85.58
75013;BME280;63567;49.956;20.130;2023-03-09T10:58:42;94840.97;;;8.67;84.81
75013;BME280;63567;49.956;20.130;2023-03-09T11:03:37;94870.06;;;8.77;84.40
75013;BME280;63567;49.956;20.130;2023-03-09T11:08:40;94869.84;;;8.55;86.30
75013;BME280;63567;49.956;20.130;2023-03-09T11:11:07;94879.66;;;8.59;86.34
75013;BME280;63567;49.956;20.130;2023-03-09T11:13:42;94889.81;;;8.56;87.25
75013;BME280;63567;49.956;20.130;2023-03-09T11:16:25;94885.47;;;8.50;87.50
75013;BME280;63567;49.956;20.130;2023-03-09T11:19:11;94882.28;;;8.48;87.43
75013;BME280;63567;49.956;20.130;2023-03-09T11:21:38;94885.09;;;8.34;87.81
75013;BME280;63567;49.956;20.130;2023-03-09T11:24:06;94882.00;;;8.26;88.28
75013;BME280;63567;49.956;20.130;2023-03-09T11:26:39;94903.88;;;8.08;89.28
75013;BME280;63567;49.956;20.130;2023-03-09T11:29:49;94904.00;;;8.13;89.80
75013;BME280;63567;49.956;20.130;2023-03-09T11:32:16;94905.03;;;8.12;89.39
75013;BME280;63567;49.956;20.130;2023-03-09T11:34:42;94910.72;;;8.09;90.08
75013;BME280;63567;49.956;20.130;2023-03-09T11:37:25;94915.31;;;8.13;89.61
75013;BME280;63567;49.956;20.130;2023-03-09T11:39:58;94916.88;;;8.14;90.38
75013;BME280;63567;49.956;20.130;2023-03-09T11:42:31;94911.53;;;8.21;89.99
75013;BME280;63567;49.956;20.130;2023-03-09T11:44:58;94926.03;;;8.23;89.75
75013;BME280;63567;49.956;20.130;2023-03-09T11:47:29;94931.97;;;8.31;89.66
75013;BME280;63567;49.956;20.130;2023-03-09T11:49:57;94930.94;;;8.20;89.46
75013;BME280;63567;49.956;20.130;2023-03-09T11:52:32;94940.38;;;8.21;88.39
75013;BME280;63567;49.956;20.130;2023-03-09T11:55:02;94936.19;;;8.20;88.77
75013;BME280;63567;49.956;20.130;2023-03-09T11:57:33;94952.25;;;8.12;87.71
75013;BME280;63567;49.956;20.130;2023-03-09T12:00:00;94947.41;;;8.09;86.41
75013;BME280;63567;49.956;20.130;2023-03-09T12:02:57;94965.88;;;8.02;86.92
75013;BME280;63567;49.956;20.130;2023-03-09T12:05:25;94973.94;;;7.89;86.73
75013;BME280;63567;49.956;20.130;2023-03-09T12:10:52;94983.50;;;7.83;87.47
75013;BME280;63567;49.956;20.130;2023-03-09T12:13:32;94994.84;;;7.77;87.17
75013;BME280;63567;49.956;20.130;2023-03-09T12:16:08;94999.06;;;7.78;86.78
75013;BME280;63567;49.956;20.130;2023-03-09T12:18:38;95004.59;;;7.70;87.04
75013;BME280;63567;49.956;20.130;2023-03-09T12:21:07;94995.16;;;7.69;87.29
75013;BME280;63567;49.956;20.130;2023-03-09T12:26:19;95016.50;;;7.72;87.03
75013;BME280;63567;49.956;20.130;2023-03-09T12:29:21;95025.50;;;7.76;86.90
75013;BME280;63567;49.956;20.130;2023-03-09T12:32:20;95025.56;;;7.88;87.41
75013;BME280;63567;49.956;20.130;2023-03-09T12:34:59;95032.72;;;7.81;86.68
75013;BME280;63567;49.956;20.130;2023-03-09T12:42:29;95051.06;;;7.81;86.71
75013;BME280;63567;49.956;20.130;2023-03-09T12:45:00;95067.38;;;7.83;86.91
75013;BME280;63567;49.956;20.130;2023-03-09T12:47:39;95058.06;;;7.87;86.54
75013;BME280;63567;49.956;20.130;2023-03-09T12:55:19;95091.09;;;7.88;86.35
75013;BME280;63567;49.956;20.130;2023-03-09T12:57:46;95098.00;;;7.82;86.14
75013;BME280;63567;49.956;20.130;2023-03-09T13:00:24;95112.94;;;7.82;86.28
75013;BME280;63567;49.956;20.130;2023-03-09T13:02:55;95108.81;;;7.74;85.89
75013;BME280;63567;49.956;20.130;2023-03-09T13:05:28;95099.69;;;7.77;85.70
75013;BME280;63567;49.956;20.130;2023-03-09T13:08:01;95110.75;;;7.79;85.67
75013;BME280;63567;49.956;20.130;2023-03-09T13:10:33;95122.56;;;7.88;85.31
75013;BME280;63567;49.956;20.130;2023-03-09T13:13:33;95132.75;;;7.96;84.86
75013;BME280;63567;49.956;20.130;2023-03-09T13:21:40;95153.00;;;8.08;83.36
75013;BME280;63567;49.956;20.130;2023-03-09T13:25:09;95155.16;;;8.11;83.16
75013;BME280;63567;49.956;20.130;2023-03-09T13:29:52;95174.03;;;8.19;82.46
75013;BME280;63567;49.956;20.130;2023-03-09T13:34:44;95171.91;;;8.28;82.38
75013;BME280;63567;49.956;20.130;2023-03-09T13:37:16;95181.59;;;8.28;81.66
75013;BME280;63567;49.956;20.130;2023-03-09T13:40:00;95181.25;;;8.42;81.44
75013;BME280;63567;49.956;20.130;2023-03-09T13:42:27;95181.84;;;8.45;81.04
75013;BME280;63567;49.956;20.130;2023-03-09T13:44:53;95183.00;;;8.49;81.38
75013;BME280;63567;49.956;20.130;2023-03-09T13:47:23;95194.31;;;8.49;79.65
75013;BME280;63567;49.956;20.130;2023-03-09T13:49:49;95201.78;;;8.64;79.04
75013;BME280;63567;49.956;20.130;2023-03-09T13:52:16;95208.00;;;8.70;79.05
75013;BME280;63567;49.956;20.130;2023-03-09T13:57:30;95214.25;;;8.69;79.07